Weaverland, Pennsylvania
Current Conditions -  °F | °C
As of 11:55 AM on Thursday 23 Oct 2014 (Local Time) from KMQS Reporting Station
Overcast Overcast  
Wind Chill: 54°   Ceiling: 4000
Heat Index: 54°   Visibility: 10mi
Dew Point: 45°   Wind: 16mph
Humidity: 72%   Direction: 330°NNW
Pressure: 29.82"   Gusts: 25mph
Location:  40.1386°N, 76.0187°W
Report Text: KMQS 231555Z AUTO 33014G22KT 10SM FEW020 OVC040 12/07 A2982 RMK AO2
Loading
Personal Weather Stations






























Interactive Weather Map
Tropical Storm Tracking
New forecast layout! Learn more

10-Day Weather Forecast

Advertisements
Track Severe Weather on mobile